sensor_id;sensor_type;location;lat;lon;timestamp;pressure;altitude;pressure_sealevel;temperature;humidity
54592;BME280;40488;48.558;18.150;2023-02-13T00:01:34;101689.25;;;-0.07;80.67
54592;BME280;40488;48.558;18.150;2023-02-13T00:04:03;101695.88;;;-0.19;80.38
54592;BME280;40488;48.558;18.150;2023-02-13T00:06:32;101692.59;;;-0.30;80.55
54592;BME280;40488;48.558;18.150;2023-02-13T00:09:01;101702.09;;;-0.26;80.52
54592;BME280;40488;48.558;18.150;2023-02-13T00:11:33;101692.19;;;-0.24;80.56
54592;BME280;40488;48.558;18.150;2023-02-13T00:14:02;101699.81;;;-0.23;80.27
54592;BME280;40488;48.558;18.150;2023-02-13T00:16:31;101699.28;;;-0.19;80.60
54592;BME280;40488;48.558;18.150;2023-02-13T00:19:01;101694.22;;;-0.30;80.30
54592;BME280;40488;48.558;18.150;2023-02-13T00:21:29;101703.00;;;-0.47;80.43
54592;BME280;40488;48.558;18.150;2023-02-13T00:23:58;101699.75;;;-0.46;80.62
54592;BME280;40488;48.558;18.150;2023-02-13T00:26:27;101709.78;;;-0.46;80.46
54592;BME280;40488;48.558;18.150;2023-02-13T00:28:56;101697.53;;;-0.53;80.76
54592;BME280;40488;48.558;18.150;2023-02-13T00:31:25;101694.50;;;-0.49;80.59
54592;BME280;40488;48.558;18.150;2023-02-13T00:33:54;101704.28;;;-0.52;80.44
54592;BME280;40488;48.558;18.150;2023-02-13T00:36:24;101698.03;;;-0.57;80.51
54592;BME280;40488;48.558;18.150;2023-02-13T00:38:53;101705.81;;;-0.54;80.66
54592;BME280;40488;48.558;18.150;2023-02-13T00:41:22;101704.53;;;-0.49;80.73
54592;BME280;40488;48.558;18.150;2023-02-13T00:43:51;101699.56;;;-0.59;80.55
54592;BME280;40488;48.558;18.150;2023-02-13T00:46:20;101705.13;;;-0.63;80.67
54592;BME280;40488;48.558;18.150;2023-02-13T00:48:49;101704.34;;;-0.62;80.47
54592;BME280;40488;48.558;18.150;2023-02-13T00:51:18;101705.13;;;-0.63;80.66
54592;BME280;40488;48.558;18.150;2023-02-13T00:53:48;101711.84;;;-0.62;80.38
54592;BME280;40488;48.558;18.150;2023-02-13T00:56:17;101712.97;;;-0.58;80.62
54592;BME280;40488;48.558;18.150;2023-02-13T00:58:46;101718.88;;;-0.58;80.53
54592;BME280;40488;48.558;18.150;2023-02-13T01:01:15;101714.84;;;-0.56;80.49
54592;BME280;40488;48.558;18.150;2023-02-13T01:03:44;101713.88;;;-0.58;80.62
54592;BME280;40488;48.558;18.150;2023-02-13T01:06:13;101713.38;;;-0.64;80.35
54592;BME280;40488;48.558;18.150;2023-02-13T01:08:42;101713.97;;;-0.78;80.36
54592;BME280;40488;48.558;18.150;2023-02-13T01:11:12;101727.03;;;-0.82;80.18
54592;BME280;40488;48.558;18.150;2023-02-13T01:13:43;101719.22;;;-0.75;80.29
54592;BME280;40488;48.558;18.150;2023-02-13T01:16:12;101715.19;;;-0.73;80.42
54592;BME280;40488;48.558;18.150;2023-02-13T01:18:44;101724.47;;;-0.72;80.44
54592;BME280;40488;48.558;18.150;2023-02-13T01:21:17;101733.47;;;-0.74;80.95
54592;BME280;40488;48.558;18.150;2023-02-13T01:23:46;101719.47;;;-0.72;80.77
54592;BME280;40488;48.558;18.150;2023-02-13T01:26:21;101716.72;;;-0.75;80.81
54592;BME280;40488;48.558;18.150;2023-02-13T01:28:52;101712.97;;;-0.80;80.79
54592;BME280;40488;48.558;18.150;2023-02-13T01:31:21;101711.41;;;-0.68;81.09
54592;BME280;40488;48.558;18.150;2023-02-13T01:33:51;101713.38;;;-0.64;81.02
54592;BME280;40488;48.558;18.150;2023-02-13T01:36:21;101714.91;;;-0.66;81.11
54592;BME280;40488;48.558;18.150;2023-02-13T01:38:52;101706.53;;;-0.77;81.13
54592;BME280;40488;48.558;18.150;2023-02-13T01:41:25;101711.16;;;-0.71;81.00
54592;BME280;40488;48.558;18.150;2023-02-13T01:43:56;101705.16;;;-0.73;81.05
54592;BME280;40488;48.558;18.150;2023-02-13T01:46:30;101700.44;;;-0.80;81.43
54592;BME280;40488;48.558;18.150;2023-02-13T01:49:08;101691.69;;;-0.85;81.16
54592;BME280;40488;48.558;18.150;2023-02-13T01:51:40;101697.94;;;-0.80;81.54
54592;BME280;40488;48.558;18.150;2023-02-13T01:54:13;101696.31;;;-0.80;81.79
54592;BME280;40488;48.558;18.150;2023-02-13T01:56:46;101691.69;;;-0.85;81.50
54592;BME280;40488;48.558;18.150;2023-02-13T01:59:20;101683.94;;;-0.88;81.33
54592;BME280;40488;48.558;18.150;2023-02-13T02:01:51;101690.19;;;-0.83;81.17
54592;BME280;40488;48.558;18.150;2023-02-13T02:04:25;101690.41;;;-0.80;81.26
54592;BME280;40488;48.558;18.150;2023-02-13T02:06:57;101695.19;;;-0.83;81.25
54592;BME280;40488;48.558;18.150;2023-02-13T02:09:35;101691.94;;;-0.82;81.53
54592;BME280;40488;48.558;18.150;2023-02-13T02:12:11;101684.91;;;-0.86;80.98
54592;BME280;40488;48.558;18.150;2023-02-13T02:14:42;101690.50;;;-1.00;81.23
54592;BME280;40488;48.558;18.150;2023-02-13T02:17:12;101688.28;;;-1.07;81.33
54592;BME280;40488;48.558;18.150;2023-02-13T02:19:46;101699.44;;;-1.04;81.26
54592;BME280;40488;48.558;18.150;2023-02-13T02:22:41;101690.50;;;-1.00;81.56
54592;BME280;40488;48.558;18.150;2023-02-13T02:28:30;101683.75;;;-1.01;81.56
54592;BME280;40488;48.558;18.150;2023-02-13T02:34:12;101662.78;;;-1.13;81.60
54592;BME280;40488;48.558;18.150;2023-02-13T02:36:57;101672.25;;;-1.09;81.49
54592;BME280;40488;48.558;18.150;2023-02-13T02:39:42;101670.25;;;-1.03;81.58
54592;BME280;40488;48.558;18.150;2023-02-13T02:42:23;101663.28;;;-0.96;81.62
54592;BME280;40488;48.558;18.150;2023-02-13T02:45:03;101662.00;;;-0.91;81.52
54592;BME280;40488;48.558;18.150;2023-02-13T02:47:42;101658.66;;;-0.91;81.73
54592;BME280;40488;48.558;18.150;2023-02-13T02:50:33;101652.44;;;-0.96;81.50
54592;BME280;40488;48.558;18.150;2023-02-13T02:53:11;101642.56;;;-1.05;81.44
54592;BME280;40488;48.558;18.150;2023-02-13T02:55:47;101643.34;;;-1.06;81.40
54592;BME280;40488;48.558;18.150;2023-02-13T02:58:21;101657.19;;;-0.99;81.43
54592;BME280;40488;48.558;18.150;2023-02-13T03:01:04;101653.69;;;-1.01;81.27
54592;BME280;40488;48.558;18.150;2023-02-13T03:03:45;101658.22;;;-1.07;81.25
54592;BME280;40488;48.558;18.150;2023-02-13T03:06:31;101661.81;;;-1.25;81.13
54592;BME280;40488;48.558;18.150;2023-02-13T03:09:06;101653.97;;;-1.30;80.87
54592;BME280;40488;48.558;18.150;2023-02-13T03:11:50;101650.94;;;-1.26;81.04
54592;BME280;40488;48.558;18.150;2023-02-13T03:14:31;101658.06;;;-1.20;81.04
54592;BME280;40488;48.558;18.150;2023-02-13T03:17:01;101654.78;;;-1.19;81.20
54592;BME280;40488;48.558;18.150;2023-02-13T03:19:51;101656.56;;;-1.28;80.90
54592;BME280;40488;48.558;18.150;2023-02-13T03:22:41;101659.81;;;-1.29;80.84
54592;BME280;40488;48.558;18.150;2023-02-13T03:25:20;101655.88;;;-1.38;80.96
54592;BME280;40488;48.558;18.150;2023-02-13T03:28:02;101657.59;;;-1.37;80.57
54592;BME280;40488;48.558;18.150;2023-02-13T03:30:54;101659.38;;;-1.46;80.66
54592;BME280;40488;48.558;18.150;2023-02-13T03:33:38;101657.75;;;-1.45;80.66
54592;BME280;40488;48.558;18.150;2023-02-13T03:36:16;101669.66;;;-1.43;80.42
54592;BME280;40488;48.558;18.150;2023-02-13T03:39:02;101666.66;;;-1.49;80.77
54592;BME280;40488;48.558;18.150;2023-02-13T03:41:38;101663.41;;;-1.48;80.93
54592;BME280;40488;48.558;18.150;2023-02-13T03:44:14;101662.78;;;-1.45;81.07
54592;BME280;40488;48.558;18.150;2023-02-13T03:46:47;101675.66;;;-1.41;80.88
54592;BME280;40488;48.558;18.150;2023-02-13T03:49:20;101679.13;;;-1.39;80.76
54592;BME280;40488;48.558;18.150;2023-02-13T03:52:04;101672.22;;;-1.31;80.99
54592;BME280;40488;48.558;18.150;2023-02-13T03:54:42;101671.97;;;-1.34;80.94
54592;BME280;40488;48.558;18.150;2023-02-13T03:57:23;101677.13;;;-1.32;80.76
54592;BME280;40488;48.558;18.150;2023-02-13T04:00:06;101678.75;;;-1.33;80.90
54592;BME280;40488;48.558;18.150;2023-02-13T04:02:48;101688.91;;;-1.42;80.54
54592;BME280;40488;48.558;18.150;2023-02-13T04:05:20;101686.56;;;-1.50;80.89
54592;BME280;40488;48.558;18.150;2023-02-13T04:07:49;101697.31;;;-1.51;81.09
54592;BME280;40488;48.558;18.150;2023-02-13T04:10:21;101687.91;;;-1.44;81.16
54592;BME280;40488;48.558;18.150;2023-02-13T04:12:59;101672.69;;;-1.47;81.19
54592;BME280;40488;48.558;18.150;2023-02-13T04:15:32;101678.97;;;-1.62;81.08
54592;BME280;40488;48.558;18.150;2023-02-13T04:18:07;101683.72;;;-1.65;81.30
54592;BME280;40488;48.558;18.150;2023-02-13T04:20:38;101678.09;;;-1.62;81.34
54592;BME280;40488;48.558;18.150;2023-02-13T04:23:08;101676.94;;;-1.56;81.02
54592;BME280;40488;48.558;18.150;2023-02-13T04:25:41;101676.56;;;-1.60;81.34
54592;BME280;40488;48.558;18.150;2023-02-13T04:28:11;101680.69;;;-1.61;81.30
54592;BME280;40488;48.558;18.150;2023-02-13T04:30:40;101687.47;;;-1.60;81.34
54592;BME280;40488;48.558;18.150;2023-02-13T04:33:10;101691.94;;;-1.56;81.66
54592;BME280;40488;48.558;18.150;2023-02-13T04:35:38;101694.72;;;-1.53;81.24
54592;BME280;40488;48.558;18.150;2023-02-13T04:38:07;101687.19;;;-1.53;81.74
54592;BME280;40488;48.558;18.150;2023-02-13T04:40:36;101683.25;;;-1.71;81.43
54592;BME280;40488;48.558;18.150;2023-02-13T04:43:06;101685.75;;;-1.71;81.32
54592;BME280;40488;48.558;18.150;2023-02-13T04:45:35;101684.25;;;-1.69;81.48
54592;BME280;40488;48.558;18.150;2023-02-13T04:48:04;101672.63;;;-1.78;81.57
54592;BME280;40488;48.558;18.150;2023-02-13T04:50:33;101685.97;;;-1.68;81.82
54592;BME280;40488;48.558;18.150;2023-02-13T04:53:01;101690.59;;;-1.62;81.05
54592;BME280;40488;48.558;18.150;2023-02-13T04:55:30;101686.84;;;-1.67;81.55
54592;BME280;40488;48.558;18.150;2023-02-13T04:57:59;101683.75;;;-1.75;81.25
54592;BME280;40488;48.558;18.150;2023-02-13T05:00:29;101689.50;;;-1.76;81.49
54592;BME280;40488;48.558;18.150;2023-02-13T05:03:03;101685.38;;;-1.75;81.84
54592;BME280;40488;48.558;18.150;2023-02-13T05:05:33;101672.47;;;-1.80;81.47
54592;BME280;40488;48.558;18.150;2023-02-13T05:08:02;101686.66;;;-1.80;81.53
54592;BME280;40488;48.558;18.150;2023-02-13T05:10:31;101691.75;;;-1.89;81.35
54592;BME280;40488;48.558;18.150;2023-02-13T05:13:00;101687.78;;;-1.97;81.35
54592;BME280;40488;48.558;18.150;2023-02-13T05:15:31;101689.53;;;-1.96;81.40
54592;BME280;40488;48.558;18.150;2023-02-13T05:18:00;101690.25;;;-1.87;81.30
54592;BME280;40488;48.558;18.150;2023-02-13T05:20:28;101685.16;;;-1.88;81.58
54592;BME280;40488;48.558;18.150;2023-02-13T05:22:58;101685.78;;;-1.91;81.17
54592;BME280;40488;48.558;18.150;2023-02-13T05:25:37;101688.78;;;-1.85;81.19
54592;BME280;40488;48.558;18.150;2023-02-13T05:28:06;101681.00;;;-1.78;81.57
54592;BME280;40488;48.558;18.150;2023-02-13T05:30:57;101686.50;;;-1.72;81.31
54592;BME280;40488;48.558;18.150;2023-02-13T05:33:26;101684.97;;;-1.70;81.34
54592;BME280;40488;48.558;18.150;2023-02-13T05:35:55;101681.22;;;-1.65;81.79
54592;BME280;40488;48.558;18.150;2023-02-13T05:38:24;101683.34;;;-1.59;81.77
54592;BME280;40488;48.558;18.150;2023-02-13T05:40:52;101689.44;;;-1.46;81.86
54592;BME280;40488;48.558;18.150;2023-02-13T05:43:22;101688.91;;;-1.42;82.04
54592;BME280;40488;48.558;18.150;2023-02-13T05:45:51;101688.66;;;-1.34;81.90
54592;BME280;40488;48.558;18.150;2023-02-13T05:48:21;101677.00;;;-1.34;82.27
54592;BME280;40488;48.558;18.150;2023-02-13T05:50:50;101683.84;;;-1.21;82.78
54592;BME280;40488;48.558;18.150;2023-02-13T05:53:18;101688.47;;;-1.16;82.58
54592;BME280;40488;48.558;18.150;2023-02-13T05:55:47;101690.53;;;-1.10;82.38
54592;BME280;40488;48.558;18.150;2023-02-13T05:58:17;101694.28;;;-1.05;82.46
54592;BME280;40488;48.558;18.150;2023-02-13T06:00:46;101679.78;;;-1.09;82.72
54592;BME280;40488;48.558;18.150;2023-02-13T06:03:15;101696.03;;;-1.04;82.87
54592;BME280;40488;48.558;18.150;2023-02-13T06:05:45;101692.56;;;-1.06;82.51
54592;BME280;40488;48.558;18.150;2023-02-13T06:08:14;101701.50;;;-0.98;82.83
54592;BME280;40488;48.558;18.150;2023-02-13T06:10:43;101710.81;;;-0.97;82.94
54592;BME280;40488;48.558;18.150;2023-02-13T06:13:12;101699.25;;;-0.95;83.08
54592;BME280;40488;48.558;18.150;2023-02-13T06:15:40;101705.03;;;-0.96;82.86
54592;BME280;40488;48.558;18.150;2023-02-13T06:18:09;101695.66;;;-0.99;82.91
54592;BME280;40488;48.558;18.150;2023-02-13T06:20:38;101707.31;;;-0.99;83.14
54592;BME280;40488;48.558;18.150;2023-02-13T06:23:09;101701.91;;;-0.94;83.21
54592;BME280;40488;48.558;18.150;2023-02-13T06:25:37;101708.13;;;-0.67;83.36
54592;BME280;40488;48.558;18.150;2023-02-13T06:28:06;101705.81;;;-0.54;83.45
54592;BME280;40488;48.558;18.150;2023-02-13T06:30:35;101697.06;;;-0.59;82.98
54592;BME280;40488;48.558;18.150;2023-02-13T06:33:04;101696.06;;;-0.61;83.33
54592;BME280;40488;48.558;18.150;2023-02-13T06:35:33;101694.44;;;-0.60;83.22
54592;BME280;40488;48.558;18.150;2023-02-13T06:38:02;101685.25;;;-0.60;83.61
54592;BME280;40488;48.558;18.150;2023-02-13T06:40:32;101712.34;;;-0.56;83.45
54592;BME280;40488;48.558;18.150;2023-02-13T06:43:02;101695.78;;;-0.54;83.45
54592;BME280;40488;48.558;18.150;2023-02-13T06:45:30;101699.03;;;-0.55;83.33
54592;BME280;40488;48.558;18.150;2023-02-13T06:47:59;101702.75;;;-0.50;83.75
54592;BME280;40488;48.558;18.150;2023-02-13T06:50:28;101692.97;;;-0.47;83.80
54592;BME280;40488;48.558;18.150;2023-02-13T06:52:57;101699.25;;;-0.52;83.71
54592;BME280;40488;48.558;18.150;2023-02-13T06:55:26;101690.56;;;-0.45;83.99
54592;BME280;40488;48.558;18.150;2023-02-13T06:57:56;101702.69;;;-0.40;84.00
54592;BME280;40488;48.558;18.150;2023-02-13T07:00:25;101703.72;;;-0.26;83.85
54592;BME280;40488;48.558;18.150;2023-02-13T07:03:00;101711.81;;;-0.19;83.97
54592;BME280;40488;48.558;18.150;2023-02-13T07:05:29;101699.16;;;-0.20;83.87
54592;BME280;40488;48.558;18.150;2023-02-13T07:07:58;101690.66;;;-0.22;83.65
54592;BME280;40488;48.558;18.150;2023-02-13T07:10:27;101704.97;;;-0.10;83.73
54592;BME280;40488;48.558;18.150;2023-02-13T07:12:57;101697.66;;;-0.07;83.74
54592;BME280;40488;48.558;18.150;2023-02-13T07:15:33;101705.66;;;-0.01;83.79
54592;BME280;40488;48.558;18.150;2023-02-13T07:18:03;101701.22;;;0.07;83.70
54592;BME280;40488;48.558;18.150;2023-02-13T07:20:33;101705.44;;;0.08;83.56
54592;BME280;40488;48.558;18.150;2023-02-13T07:23:02;101706.44;;;0.10;83.33
54592;BME280;40488;48.558;18.150;2023-02-13T07:25:32;101709.28;;;0.15;83.77
54592;BME280;40488;48.558;18.150;2023-02-13T07:28:03;101702.94;;;0.20;83.49
54592;BME280;40488;48.558;18.150;2023-02-13T07:30:33;101700.34;;;0.18;83.82
54592;BME280;40488;48.558;18.150;2023-02-13T07:33:03;101705.38;;;0.30;83.59
54592;BME280;40488;48.558;18.150;2023-02-13T07:35:32;101726.25;;;0.29;83.38
54592;BME280;40488;48.558;18.150;2023-02-13T07:38:02;101705.84;;;0.36;83.32
54592;BME280;40488;48.558;18.150;2023-02-13T07:40:31;101717.38;;;0.34;83.19
54592;BME280;40488;48.558;18.150;2023-02-13T07:43:00;101717.59;;;0.37;83.49
54592;BME280;40488;48.558;18.150;2023-02-13T07:45:30;101708.22;;;0.46;83.54
54592;BME280;40488;48.558;18.150;2023-02-13T07:47:59;101699.19;;;0.48;83.41
54592;BME280;40488;48.558;18.150;2023-02-13T07:50:28;101712.16;;;0.54;83.22
54592;BME280;40488;48.558;18.150;2023-02-13T07:53:00;101725.06;;;0.47;82.63
54592;BME280;40488;48.558;18.150;2023-02-13T07:55:29;101716.75;;;0.48;82.55
54592;BME280;40488;48.558;18.150;2023-02-13T07:57:59;101720.25;;;0.50;82.28
54592;BME280;40488;48.558;18.150;2023-02-13T08:00:29;101715.22;;;0.50;82.47
54592;BME280;40488;48.558;18.150;2023-02-13T08:02:59;101711.09;;;0.62;82.65
54592;BME280;40488;48.558;18.150;2023-02-13T08:05:28;101711.50;;;0.68;82.31
54592;BME280;40488;48.558;18.150;2023-02-13T08:07:59;101714.16;;;0.70;81.88
54592;BME280;40488;48.558;18.150;2023-02-13T08:10:27;101716.31;;;0.65;81.96
54592;BME280;40488;48.558;18.150;2023-02-13T08:13:07;101707.78;;;0.63;81.70
54592;BME280;40488;48.558;18.150;2023-02-13T08:15:37;101716.75;;;0.71;82.30
54592;BME280;40488;48.558;18.150;2023-02-13T08:18:06;101717.16;;;0.77;81.45
54592;BME280;40488;48.558;18.150;2023-02-13T08:20:35;101709.94;;;0.82;81.62
54592;BME280;40488;48.558;18.150;2023-02-13T08:23:05;101708.66;;;0.98;81.58
54592;BME280;40488;48.558;18.150;2023-02-13T08:25:35;101705.78;;;1.05;81.37
54592;BME280;40488;48.558;18.150;2023-02-13T08:28:04;101708.16;;;1.15;81.82
54592;BME280;40488;48.558;18.150;2023-02-13T08:30:33;101710.31;;;1.22;81.44
54592;BME280;40488;48.558;18.150;2023-02-13T08:33:03;101714.03;;;1.27;81.50
54592;BME280;40488;48.558;18.150;2023-02-13T08:35:32;101709.22;;;1.30;81.19
54592;BME280;40488;48.558;18.150;2023-02-13T08:38:02;101694.19;;;1.44;81.88
54592;BME280;40488;48.558;18.150;2023-02-13T08:40:31;101694.00;;;1.65;81.77
54592;BME280;40488;48.558;18.150;2023-02-13T08:43:00;101694.16;;;1.80;80.89
54592;BME280;40488;48.558;18.150;2023-02-13T08:45:29;101685.66;;;2.04;81.74
54592;BME280;40488;48.558;18.150;2023-02-13T08:47:59;101700.22;;;2.21;80.63
54592;BME280;40488;48.558;18.150;2023-02-13T08:50:32;101702.19;;;2.25;80.55
54592;BME280;40488;48.558;18.150;2023-02-13T08:53:03;101688.03;;;2.40;80.70
54592;BME280;40488;48.558;18.150;2023-02-13T08:55:32;101694.06;;;2.42;80.65
54592;BME280;40488;48.558;18.150;2023-02-13T08:58:02;101689.22;;;2.45;79.74
54592;BME280;40488;48.558;18.150;2023-02-13T09:00:32;101686.53;;;2.42;79.36
54592;BME280;40488;48.558;18.150;2023-02-13T09:03:02;101691.72;;;2.45;79.13
54592;BME280;40488;48.558;18.150;2023-02-13T09:05:32;101687.59;;;2.59;78.51
54592;BME280;40488;48.558;18.150;2023-02-13T09:08:02;101691.16;;;2.62;78.25
54592;BME280;40488;48.558;18.150;2023-02-13T09:10:31;101690.41;;;2.63;78.61
54592;BME280;40488;48.558;18.150;2023-02-13T09:13:00;101701.81;;;2.71;78.20
54592;BME280;40488;48.558;18.150;2023-02-13T09:15:29;101694.25;;;2.85;77.58
54592;BME280;40488;48.558;18.150;2023-02-13T09:17:58;101692.31;;;2.81;77.01
54592;BME280;40488;48.558;18.150;2023-02-13T09:20:27;101683.75;;;2.79;77.63
54592;BME280;40488;48.558;18.150;2023-02-13T09:22:57;101687.09;;;2.78;77.28
54592;BME280;40488;48.558;18.150;2023-02-13T09:25:26;101690.16;;;2.73;76.65
54592;BME280;40488;48.558;18.150;2023-02-13T09:27:55;101692.88;;;2.77;76.73
54592;BME280;40488;48.558;18.150;2023-02-13T09:30:23;101696.16;;;2.89;77.54
54592;BME280;40488;48.558;18.150;2023-02-13T09:32:52;101701.22;;;3.02;77.23
54592;BME280;40488;48.558;18.150;2023-02-13T09:35:22;101701.38;;;3.18;76.53
54592;BME280;40488;48.558;18.150;2023-02-13T09:37:51;101694.63;;;3.31;76.96
54592;BME280;40488;48.558;18.150;2023-02-13T09:40:24;101696.44;;;3.47;76.48
54592;BME280;40488;48.558;18.150;2023-02-13T09:43:04;101699.50;;;3.56;76.37
54592;BME280;40488;48.558;18.150;2023-02-13T09:45:34;101697.09;;;3.72;76.28
54592;BME280;40488;48.558;18.150;2023-02-13T09:48:04;101687.81;;;3.86;75.58
54592;BME280;40488;48.558;18.150;2023-02-13T09:50:33;101690.75;;;4.08;75.77
54592;BME280;40488;48.558;18.150;2023-02-13T09:53:03;101669.28;;;4.15;75.08
54592;BME280;40488;48.558;18.150;2023-02-13T09:55:42;101686.59;;;4.08;74.74
54592;BME280;40488;48.558;18.150;2023-02-13T09:58:29;101696.69;;;4.08;75.67
54592;BME280;40488;48.558;18.150;2023-02-13T10:01:04;101690.69;;;4.06;75.45
54592;BME280;40488;48.558;18.150;2023-02-13T10:03:39;101684.69;;;4.04;74.85
54592;BME280;40488;48.558;18.150;2023-02-13T10:06:16;101691.31;;;4.02;75.43
54592;BME280;40488;48.558;18.150;2023-02-13T10:09:00;101658.19;;;3.83;75.05
54592;BME280;40488;48.558;18.150;2023-02-13T10:11:44;101678.06;;;4.06;75.59
54592;BME280;40488;48.558;18.150;2023-02-13T10:14:18;101673.69;;;4.19;75.03
54592;BME280;40488;48.558;18.150;2023-02-13T10:16:54;101675.03;;;4.27;75.03
54592;BME280;40488;48.558;18.150;2023-02-13T10:19:33;101669.34;;;4.31;74.83
54592;BME280;40488;48.558;18.150;2023-02-13T10:22:09;101671.34;;;4.36;75.42
54592;BME280;40488;48.558;18.150;2023-02-13T10:24:44;101672.56;;;4.43;75.09
54592;BME280;40488;48.558;18.150;2023-02-13T10:27:22;101666.97;;;4.48;74.50
54592;BME280;40488;48.558;18.150;2023-02-13T10:29:55;101660.41;;;4.52;74.53
54592;BME280;40488;48.558;18.150;2023-02-13T10:32:49;101657.53;;;4.60;75.05
54592;BME280;40488;48.558;18.150;2023-02-13T10:35:37;101644.78;;;4.59;74.86
54592;BME280;40488;48.558;18.150;2023-02-13T10:38:14;101648.03;;;4.56;74.82
54592;BME280;40488;48.558;18.150;2023-02-13T10:40:59;101636.25;;;4.57;74.39
54592;BME280;40488;48.558;18.150;2023-02-13T10:43:38;101637.38;;;4.62;74.91
54592;BME280;40488;48.558;18.150;2023-02-13T10:46:21;101631.09;;;4.70;74.78
54592;BME280;40488;48.558;18.150;2023-02-13T10:49:03;101631.09;;;4.70;74.89
54592;BME280;40488;48.558;18.150;2023-02-13T10:51:40;101628.41;;;4.83;74.59
54592;BME280;40488;48.558;18.150;2023-02-13T10:54:30;101630.34;;;5.03;74.58
54592;BME280;40488;48.558;18.150;2023-02-13T10:57:04;101627.69;;;5.32;74.11
54592;BME280;40488;48.558;18.150;2023-02-13T10:59:49;101615.22;;;5.53;73.14
54592;BME280;40488;48.558;18.150;2023-02-13T11:02:25;101618.09;;;5.77;72.53
54592;BME280;40488;48.558;18.150;2023-02-13T11:04:58;101603.47;;;6.05;72.08
54592;BME280;40488;48.558;18.150;2023-02-13T11:07:29;101602.72;;;6.24;71.80
54592;BME280;40488;48.558;18.150;2023-02-13T11:10:02;101603.56;;;6.24;71.22
54592;BME280;40488;48.558;18.150;2023-02-13T11:12:33;101592.53;;;6.41;71.07
54592;BME280;40488;48.558;18.150;2023-02-13T11:15:05;101597.59;;;6.77;70.93
54592;BME280;40488;48.558;18.150;2023-02-13T11:17:38;101583.16;;;6.95;70.63
54592;BME280;40488;48.558;18.150;2023-02-13T11:20:25;101584.91;;;6.96;70.23
54592;BME280;40488;48.558;18.150;2023-02-13T11:22:56;101588.00;;;7.27;70.35
54592;BME280;40488;48.558;18.150;2023-02-13T11:25:54;101583.13;;;7.52;70.16
54592;BME280;40488;48.558;18.150;2023-02-13T11:28:26;101587.06;;;7.65;69.31
54592;BME280;40488;48.558;18.150;2023-02-13T11:31:23;101582.34;;;7.74;69.31
54592;BME280;40488;48.558;18.150;2023-02-13T11:33:53;101578.28;;;7.77;69.24
54592;BME280;40488;48.558;18.150;2023-02-13T11:36:27;101581.47;;;8.15;69.20
54592;BME280;40488;48.558;18.150;2023-02-13T11:38:58;101576.50;;;8.18;68.16
54592;BME280;40488;48.558;18.150;2023-02-13T11:41:28;101570.03;;;8.26;68.24
54592;BME280;40488;48.558;18.150;2023-02-13T11:43:59;101573.25;;;8.42;67.65
54592;BME280;40488;48.558;18.150;2023-02-13T11:46:44;101567.63;;;8.49;66.84
54592;BME280;40488;48.558;18.150;2023-02-13T11:49:17;101565.00;;;8.70;66.77
54592;BME280;40488;48.558;18.150;2023-02-13T11:51:48;101564.91;;;8.91;66.83
54592;BME280;40488;48.558;18.150;2023-02-13T11:54:28;101564.13;;;9.17;65.80
54592;BME280;40488;48.558;18.150;2023-02-13T11:56:59;101560.56;;;9.35;65.94
54592;BME280;40488;48.558;18.150;2023-02-13T11:59:39;101562.41;;;9.39;65.04
54592;BME280;40488;48.558;18.150;2023-02-13T12:02:16;101562.72;;;9.49;64.82
54592;BME280;40488;48.558;18.150;2023-02-13T12:04:48;101547.09;;;9.65;65.25
54592;BME280;40488;48.558;18.150;2023-02-13T12:07:23;101547.81;;;9.61;64.81
54592;BME280;40488;48.558;18.150;2023-02-13T12:09:59;101545.47;;;9.41;64.28
54592;BME280;40488;48.558;18.150;2023-02-13T12:12:36;101539.78;;;9.23;64.37
54592;BME280;40488;48.558;18.150;2023-02-13T12:15:16;101532.19;;;9.01;65.68
54592;BME280;40488;48.558;18.150;2023-02-13T12:17:55;101528.59;;;8.96;65.34
54592;BME280;40488;48.558;18.150;2023-02-13T12:20:33;101531.28;;;8.99;66.01
54592;BME280;40488;48.558;18.150;2023-02-13T12:23:10;101521.13;;;9.01;65.99
54592;BME280;40488;48.558;18.150;2023-02-13T12:25:51;101512.00;;;9.07;66.37
54592;BME280;40488;48.558;18.150;2023-02-13T12:28:29;101513.88;;;9.11;66.64
54592;BME280;40488;48.558;18.150;2023-02-13T12:31:22;101506.25;;;9.13;66.75
54592;BME280;40488;48.558;18.150;2023-02-13T12:34:20;101499.66;;;9.18;65.88
54592;BME280;40488;48.558;18.150;2023-02-13T12:37:04;101501.41;;;9.19;65.99
54592;BME280;40488;48.558;18.150;2023-02-13T12:39:48;101495.50;;;9.21;65.99
54592;BME280;40488;48.558;18.150;2023-02-13T12:42:30;101498.19;;;9.50;65.06
54592;BME280;40488;48.558;18.150;2023-02-13T12:45:12;101487.13;;;9.76;64.26
54592;BME280;40488;48.558;18.150;2023-02-13T12:47:58;101495.06;;;9.85;64.08
54592;BME280;40488;48.558;18.150;2023-02-13T12:50:41;101490.25;;;9.94;63.99
54592;BME280;40488;48.558;18.150;2023-02-13T12:53:26;101489.38;;;10.20;63.49
54592;BME280;40488;48.558;18.150;2023-02-13T12:56:20;101488.72;;;10.55;63.21
54592;BME280;40488;48.558;18.150;2023-02-13T12:59:04;101485.47;;;10.61;61.75
54592;BME280;40488;48.558;18.150;2023-02-13T13:04:42;101491.94;;;10.20;60.44
54592;BME280;40488;48.558;18.150;2023-02-13T13:07:41;101495.72;;;10.06;60.72
54592;BME280;40488;48.558;18.150;2023-02-13T13:10:34;101487.63;;;9.91;60.81
54592;BME280;40488;48.558;18.150;2023-02-13T13:13:13;101489.72;;;9.77;61.70
54592;BME280;40488;48.558;18.150;2023-02-13T13:15:51;101489.28;;;9.64;61.38
54592;BME280;40488;48.558;18.150;2023-02-13T13:18:30;101489.50;;;9.44;60.92
54592;BME280;40488;48.558;18.150;2023-02-13T13:21:08;101491.53;;;9.29;61.80
54592;BME280;40488;48.558;18.150;2023-02-13T13:23:45;101493.16;;;9.26;61.58
54592;BME280;40488;48.558;18.150;2023-02-13T13:26:24;101492.28;;;9.25;61.58
54592;BME280;40488;48.558;18.150;2023-02-13T13:28:59;101493.97;;;9.26;62.29